Time;durP1;ratioP1;P1;durP2;ratioP2;P2;SDS_P1;SDS_P2;PMS_P1;PMS_P2;Temp;Humidity;BMP_temperature;BMP_pressure;BME280_temperature;BME280_humidity;BME280_pressure;Samples;Min_cycle;Max_cycle;Signal;HPM_P1;HPM_P2
2022/11/25 00:02:01;;;;;;;18.75;10.60;;;7.70;76.10;;;;;;2373412;56;21051;-53
2022/11/25 00:04:32;;;;;;;17.17;10.65;;;7.60;75.80;;;;;;2373436;56;21039;-51
2022/11/25 00:06:59;;;;;;;14.38;8.63;;;7.60;75.70;;;;;;2372672;56;21050;-54
2022/11/25 00:09:27;;;;;;;16.40;8.93;;;7.60;75.70;;;;;;2373215;56;21050;-54
2022/11/25 00:11:54;;;;;;;14.20;8.70;;;7.60;75.60;;;;;;2373579;56;21047;-53
2022/11/25 00:14:22;;;;;;;12.00;7.97;;;7.60;75.60;;;;;;2374463;56;21050;-49
2022/11/25 00:16:49;;;;;;;12.60;8.57;;;7.60;75.60;;;;;;2374528;56;21131;-53
2022/11/25 00:19:16;;;;;;;17.85;9.93;;;7.60;75.60;;;;;;2373372;56;21102;-52
2022/11/25 00:21:43;;;;;;;14.10;9.05;;;7.60;75.50;;;;;;2372831;56;21050;-53
2022/11/25 00:24:14;;;;;;;12.60;9.18;;;7.50;75.50;;;;;;2372895;56;21121;-53
2022/11/25 00:26:41;;;;;;;13.00;9.02;;;7.50;75.40;;;;;;2372963;56;22184;-54
2022/11/25 00:29:11;;;;;;;12.23;7.90;;;7.50;75.50;;;;;;2373483;56;21043;-53
2022/11/25 00:31:39;;;;;;;13.82;9.23;;;7.50;75.60;;;;;;2373470;56;21051;-55
2022/11/25 00:34:10;;;;;;;12.15;7.87;;;7.50;75.80;;;;;;2374611;56;21582;-55
2022/11/25 00:36:37;;;;;;;12.98;7.57;;;7.50;75.70;;;;;;2374854;56;21078;-53
2022/11/25 00:39:09;;;;;;;15.73;9.57;;;7.50;75.80;;;;;;2374263;56;21106;-51
2022/11/25 00:44:38;;;;;;;21.00;10.35;;;7.50;75.70;;;;;;2371902;56;21003;-48
2022/11/25 00:47:08;;;;;;;14.07;8.73;;;7.40;75.60;;;;;;2373568;56;21398;-53
2022/11/25 00:49:36;;;;;;;18.45;11.18;;;7.40;75.80;;;;;;2373251;56;21130;-50
2022/11/25 00:52:05;;;;;;;19.15;11.10;;;7.40;76.20;;;;;;2374052;56;21527;-52
2022/11/25 00:54:33;;;;;;;16.75;9.90;;;7.40;76.30;;;;;;2374435;56;21633;-51
2022/11/25 00:59:36;;;;;;;17.67;10.77;;;7.40;77.00;;;;;;2354582;57;22140;-49
2022/11/25 01:02:03;;;;;;;17.90;10.13;;;7.40;77.00;;;;;;2347194;57;21038;-50
2022/11/25 01:04:31;;;;;;;18.33;11.25;;;7.40;77.10;;;;;;2346891;57;21300;-52
2022/11/25 01:06:58;;;;;;;19.17;9.70;;;7.40;77.20;;;;;;2345504;57;21086;-52
2022/11/25 01:09:26;;;;;;;18.55;11.25;;;7.40;77.30;;;;;;2345660;57;21117;-55
2022/11/25 01:11:54;;;;;;;15.63;9.57;;;7.40;77.40;;;;;;2345704;57;21529;-52
2022/11/25 01:14:22;;;;;;;16.35;10.90;;;7.40;77.60;;;;;;2345085;57;21926;-50
2022/11/25 01:16:50;;;;;;;19.55;10.80;;;7.40;77.70;;;;;;2345122;57;21553;-53
2022/11/25 01:19:18;;;;;;;18.92;11.07;;;7.40;77.70;;;;;;2345391;57;21553;-56
2022/11/25 01:21:45;;;;;;;18.00;10.80;;;7.40;77.70;;;;;;2345066;57;21545;-54
2022/11/25 01:24:14;;;;;;;15.60;10.18;;;7.40;77.70;;;;;;2346062;57;21604;-52
2022/11/25 01:26:42;;;;;;;18.52;11.30;;;7.40;77.80;;;;;;2346295;57;21022;-53
2022/11/25 01:29:14;;;;;;;19.23;10.55;;;7.40;77.90;;;;;;2345495;57;21546;-50
2022/11/25 01:31:42;;;;;;;21.98;11.75;;;7.40;78.00;;;;;;2345882;57;21093;-56
2022/11/25 01:34:13;;;;;;;19.95;12.23;;;7.40;78.10;;;;;;2345257;57;21046;-52
2022/11/25 01:36:40;;;;;;;25.70;13.88;;;7.40;78.40;;;;;;2344986;57;21542;-49
2022/11/25 01:39:12;;;;;;;19.02;11.07;;;7.40;78.50;;;;;;2344973;57;21654;-53
2022/11/25 01:41:39;;;;;;;19.90;10.85;;;7.40;78.70;;;;;;2345372;57;22169;-56
2022/11/25 01:44:10;;;;;;;23.25;12.13;;;7.40;78.70;;;;;;2345631;57;21105;-50
2022/11/25 01:46:51;;;;;;;23.15;12.95;;;7.40;78.70;;;;;;2346390;57;21573;-52
2022/11/25 01:51:58;;;;;;;22.60;15.50;;;7.40;78.70;;;;;;2335706;57;27757;-54
2022/11/25 01:54:30;;;;;;;26.00;14.40;;;7.20;82.10;;;;;;2346814;57;21042;-55
2022/11/25 01:57:01;;;;;;;19.67;11.40;;;7.30;81.40;;;;;;2346083;57;21046;-52
2022/11/25 01:59:32;;;;;;;22.77;13.65;;;7.40;80.60;;;;;;2345474;57;21609;-53
2022/11/25 02:02:00;;;;;;;30.98;14.05;;;7.40;80.00;;;;;;2345676;57;21683;-55
2022/11/25 02:04:31;;;;;;;22.80;13.90;;;7.50;79.30;;;;;;2346525;57;21620;-53
2022/11/25 02:09:41;;;;;;;20.70;12.40;;;7.50;78.40;;;;;;2355642;57;22561;-51
2022/11/25 02:12:09;;;;;;;20.92;12.65;;;7.50;78.10;;;;;;2346709;57;21065;-51
2022/11/25 02:14:36;;;;;;;22.17;12.82;;;7.50;78.00;;;;;;2347198;57;21616;-55
2022/11/25 02:17:04;;;;;;;23.10;12.23;;;7.50;78.10;;;;;;2345306;57;21550;-51
2022/11/25 02:19:42;;;;;;;25.37;12.73;;;7.50;78.10;;;;;;2345358;57;21050;-51
2022/11/25 02:22:16;;;;;;;26.80;14.98;;;7.50;78.30;;;;;;2345430;57;21045;-50
2022/11/25 02:24:45;;;;;;;26.23;15.05;;;7.50;78.50;;;;;;2346561;57;21014;-50
2022/11/25 02:27:13;;;;;;;30.30;15.57;;;7.50;78.60;;;;;;2346228;57;21037;-49
2022/11/25 02:29:42;;;;;;;30.85;15.82;;;7.50;79.00;;;;;;2346185;57;21061;-50
2022/11/25 02:32:09;;;;;;;25.60;14.07;;;7.40;79.20;;;;;;2345043;57;21621;-50
2022/11/25 02:34:45;;;;;;;26.45;15.02;;;7.40;79.40;;;;;;2345682;57;21106;-56
2022/11/25 02:37:13;;;;;;;24.52;14.13;;;7.40;79.60;;;;;;2345949;57;21102;-52
2022/11/25 02:39:40;;;;;;;24.90;13.10;;;7.40;79.60;;;;;;2345836;57;21620;-54
2022/11/25 02:42:08;;;;;;;23.20;12.85;;;7.40;79.40;;;;;;2344741;57;21181;-49
2022/11/25 02:45:18;;;;;;;21.17;12.95;;;7.50;79.20;;;;;;2346425;57;21534;-50
2022/11/25 02:47:45;;;;;;;25.40;13.40;;;7.50;79.10;;;;;;2343517;57;21037;-49
2022/11/25 02:50:13;;;;;;;26.05;13.25;;;7.50;78.80;;;;;;2345932;57;21109;-55
2022/11/25 02:52:40;;;;;;;23.52;13.25;;;7.50;78.90;;;;;;2345377;57;21074;-52
2022/11/25 02:55:08;;;;;;;19.10;10.82;;;7.50;78.80;;;;;;2344509;57;21597;-53
2022/11/25 02:57:36;;;;;;;19.50;11.90;;;7.50;78.80;;;;;;2345209;57;21118;-52
2022/11/25 03:00:06;;;;;;;24.67;14.65;;;7.50;78.80;;;;;;2345494;57;21042;-52
2022/11/25 03:02:33;;;;;;;22.85;13.45;;;7.50;78.70;;;;;;2346150;57;21518;-49
2022/11/25 03:05:00;;;;;;;21.27;12.68;;;7.60;78.70;;;;;;2346007;57;21040;-56
2022/11/25 03:07:27;;;;;;;27.30;14.75;;;7.60;78.80;;;;;;2346684;57;21124;-54
2022/11/25 03:09:56;;;;;;;24.12;13.07;;;7.60;79.00;;;;;;2345858;57;21038;-52
2022/11/25 03:12:23;;;;;;;20.42;12.05;;;7.60;79.50;;;;;;2345102;57;21118;-55
2022/11/25 03:14:50;;;;;;;24.40;13.27;;;7.60;79.10;;;;;;2345538;57;21558;-52
2022/11/25 03:17:17;;;;;;;23.33;12.65;;;7.60;79.10;;;;;;2345834;57;21097;-53
2022/11/25 03:19:44;;;;;;;23.70;12.85;;;7.60;79.10;;;;;;2345530;57;21046;-52
2022/11/25 03:22:11;;;;;;;23.55;12.93;;;7.60;79.10;;;;;;2344456;57;21528;-51
2022/11/25 03:24:38;;;;;;;27.30;14.13;;;7.60;79.10;;;;;;2344188;57;21633;-54
2022/11/25 03:27:06;;;;;;;28.55;15.05;;;7.60;79.00;;;;;;2344014;57;21049;-54
2022/11/25 03:29:33;;;;;;;28.38;14.20;;;7.70;78.90;;;;;;2344900;57;21053;-53
2022/11/25 03:32:00;;;;;;;24.90;14.70;;;7.60;78.40;;;;;;2344598;57;21050;-52
2022/11/25 03:34:28;;;;;;;28.75;16.35;;;7.70;78.30;;;;;;2344610;57;21106;-55
2022/11/25 03:36:55;;;;;;;30.48;16.02;;;7.70;78.30;;;;;;2344139;57;21018;-56
2022/11/25 03:39:22;;;;;;;28.70;15.63;;;7.70;78.10;;;;;;2343707;57;21865;-54
2022/11/25 03:41:50;;;;;;;23.27;13.65;;;7.70;78.00;;;;;;2344973;57;21034;-50
2022/11/25 03:44:17;;;;;;;33.72;15.23;;;7.70;78.00;;;;;;2346271;57;21029;-50
2022/11/25 03:46:44;;;;;;;26.90;14.93;;;7.60;78.00;;;;;;2344820;57;21046;-50
2022/11/25 03:49:11;;;;;;;28.20;14.82;;;7.60;78.10;;;;;;2343088;57;22085;-55
2022/11/25 03:51:38;;;;;;;30.75;15.65;;;7.60;78.20;;;;;;2343690;57;21034;-49
2022/11/25 03:54:06;;;;;;;24.25;13.65;;;7.60;78.20;;;;;;2343877;57;21101;-54
2022/11/25 03:56:34;;;;;;;27.45;15.32;;;7.60;78.40;;;;;;2344707;57;21058;-53
2022/11/25 03:59:01;;;;;;;28.70;16.05;;;7.60;78.60;;;;;;2345338;57;21042;-52
2022/11/25 04:01:28;;;;;;;31.25;16.33;;;7.60;78.60;;;;;;2345115;57;21133;-49
2022/11/25 04:03:55;;;;;;;25.27;14.32;;;7.50;78.60;;;;;;2344576;57;21062;-52
2022/11/25 04:06:22;;;;;;;27.90;15.48;;;7.60;78.70;;;;;;2344467;57;21039;-52
2022/11/25 04:08:50;;;;;;;29.00;15.18;;;7.50;78.70;;;;;;2343384;57;21181;-54
2022/11/25 04:11:17;;;;;;;26.27;15.60;;;7.50;78.90;;;;;;2344276;57;21561;-51
2022/11/25 04:13:44;;;;;;;24.83;13.50;;;7.50;78.90;;;;;;2344832;57;21046;-51
2022/11/25 04:16:20;;;;;;;26.17;14.43;;;7.50;78.90;;;;;;2344934;57;21046;-50
2022/11/25 04:18:47;;;;;;;27.67;15.30;;;7.50;78.90;;;;;;2343631;57;21593;-57
2022/11/25 04:21:14;;;;;;;31.27;14.70;;;7.50;78.80;;;;;;2344046;57;21057;-52
2022/11/25 04:23:42;;;;;;;23.42;13.20;;;7.50;78.70;;;;;;2344151;57;21062;-54
2022/11/25 04:26:09;;;;;;;26.73;15.27;;;7.50;78.70;;;;;;2344227;57;21049;-49
2022/11/25 04:28:36;;;;;;;21.80;12.77;;;7.50;78.60;;;;;;2344212;57;21034;-53
2022/11/25 04:31:06;;;;;;;23.98;13.45;;;7.50;78.60;;;;;;2344176;57;21118;-51
2022/11/25 04:33:33;;;;;;;24.60;14.00;;;7.50;78.40;;;;;;2344556;57;21018;-50
2022/11/25 04:36:01;;;;;;;23.95;13.13;;;7.50;78.30;;;;;;2344211;57;21262;-54
2022/11/25 04:38:28;;;;;;;24.05;13.88;;;7.50;78.30;;;;;;2344502;57;21183;-51
2022/11/25 04:40:55;;;;;;;24.23;12.80;;;7.50;78.30;;;;;;2344869;57;21600;-50
2022/11/25 04:45:59;;;;;;;30.35;13.65;;;7.50;78.40;;;;;;2343614;57;22127;-55
2022/11/25 04:48:26;;;;;;;30.73;13.75;;;7.50;78.60;;;;;;2318793;58;21533;-53
2022/11/25 04:50:53;;;;;;;34.58;15.57;;;7.40;78.70;;;;;;2319520;58;21056;-50
2022/11/25 04:53:20;;;;;;;27.95;14.65;;;7.40;78.80;;;;;;2318805;58;21122;-51
2022/11/25 04:55:47;;;;;;;26.25;14.02;;;7.40;79.00;;;;;;2319595;58;21274;-55
2022/11/25 04:59:38;;;;;;;28.08;14.73;;;7.40;79.00;;;;;;2319626;58;21060;-56
2022/11/25 05:02:05;;;;;;;24.35;13.10;;;7.40;79.00;;;;;;2320735;58;21100;-52
2022/11/25 05:04:33;;;;;;;22.15;12.52;;;7.40;78.70;;;;;;2319899;58;21654;-53
2022/11/25 05:07:00;;;;;;;24.52;13.00;;;7.40;78.90;;;;;;2319523;58;21040;-51
2022/11/25 05:09:27;;;;;;;23.45;12.65;;;7.30;79.00;;;;;;2319587;58;21052;-55
2022/11/25 05:11:54;;;;;;;26.12;13.50;;;7.30;79.10;;;;;;2320092;58;21044;-55
2022/11/25 05:14:24;;;;;;;28.15;13.85;;;7.30;79.20;;;;;;2320906;58;21040;-56
2022/11/25 05:16:51;;;;;;;23.95;12.77;;;7.30;79.30;;;;;;2319596;58;21067;-54
2022/11/25 05:19:18;;;;;;;22.58;12.48;;;7.30;79.30;;;;;;2319575;58;21524;-52
2022/11/25 05:21:45;;;;;;;22.77;13.13;;;7.30;79.30;;;;;;2319868;58;21095;-56
2022/11/25 05:24:12;;;;;;;20.83;11.80;;;7.30;79.40;;;;;;2319939;58;21099;-54
2022/11/25 05:26:40;;;;;;;28.10;13.25;;;7.30;79.40;;;;;;2319907;58;21095;-56
2022/11/25 05:29:08;;;;;;;23.87;14.05;;;7.30;79.50;;;;;;2319849;58;21059;-54
2022/11/25 05:31:35;;;;;;;28.65;15.25;;;7.30;79.70;;;;;;2319661;58;21743;-58
2022/11/25 05:34:02;;;;;;;28.10;14.10;;;7.30;79.50;;;;;;2319565;58;21306;-51
2022/11/25 05:36:30;;;;;;;23.90;12.50;;;7.20;80.30;;;;;;2319818;58;21059;-55
2022/11/25 05:38:58;;;;;;;26.50;13.70;;;7.30;79.60;;;;;;2320151;58;21607;-53
2022/11/25 05:41:25;;;;;;;26.08;14.55;;;7.20;79.60;;;;;;2320005;58;21615;-53
2022/11/25 05:43:52;;;;;;;20.92;12.25;;;7.20;79.60;;;;;;2320060;58;21566;-52
2022/11/25 05:46:20;;;;;;;22.92;12.95;;;7.20;79.70;;;;;;2320164;58;21119;-55
2022/11/25 05:48:47;;;;;;;28.33;13.82;;;7.20;79.70;;;;;;2319235;58;21432;-51
2022/11/25 05:51:14;;;;;;;22.85;13.27;;;7.20;79.60;;;;;;2319791;58;21044;-54
2022/11/25 05:53:41;;;;;;;22.45;12.85;;;7.20;79.60;;;;;;2320201;58;21678;-53
2022/11/25 05:56:10;;;;;;;24.85;12.00;;;7.10;79.60;;;;;;2319769;58;21054;-53
2022/11/25 05:58:37;;;;;;;24.33;14.07;;;7.10;79.60;;;;;;2319125;58;21679;-54
2022/11/25 06:01:08;;;;;;;23.62;12.13;;;7.10;80.10;;;;;;2319047;58;21635;-53
2022/11/25 06:03:35;;;;;;;25.70;13.00;;;7.10;79.70;;;;;;2318812;58;21547;-52
2022/11/25 06:06:03;;;;;;;28.30;12.63;;;7.10;79.70;;;;;;2318187;58;21782;-53
2022/11/25 06:08:31;;;;;;;24.25;12.13;;;7.00;79.70;;;;;;2319266;58;21115;-51
2022/11/25 06:10:58;;;;;;;21.55;11.35;;;7.00;79.70;;;;;;2320109;58;21500;-56
2022/11/25 06:13:25;;;;;;;24.90;12.13;;;7.00;79.80;;;;;;2320287;58;21516;-55
2022/11/25 06:15:52;;;;;;;22.37;12.07;;;7.00;79.80;;;;;;2318736;58;21119;-58
2022/11/25 06:18:20;;;;;;;25.92;12.65;;;7.00;80.50;;;;;;2318695;58;21056;-52
2022/11/25 06:20:56;;;;;;;24.75;11.32;;;7.00;81.70;;;;;;2318845;58;21059;-51
2022/11/25 06:23:24;;;;;;;19.30;10.00;;;7.00;81.80;;;;;;2318177;58;21036;-47
2022/11/25 06:25:51;;;;;;;19.73;11.25;;;7.00;81.20;;;;;;2319672;58;21052;-49
2022/11/25 06:28:18;;;;;;;56.00;13.15;;;7.00;80.70;;;;;;2320136;58;21694;-50
2022/11/25 06:30:46;;;;;;;21.12;10.70;;;7.00;80.40;;;;;;2319765;58;21127;-49
2022/11/25 06:33:13;;;;;;;21.45;10.75;;;7.00;80.20;;;;;;2318729;58;21604;-54
2022/11/25 06:35:40;;;;;;;18.87;9.80;;;6.90;80.10;;;;;;2318832;58;21044;-48
2022/11/25 06:38:07;;;;;;;22.23;10.30;;;7.00;80.10;;;;;;2319264;58;21040;-50
2022/11/25 06:40:34;;;;;;;22.83;10.48;;;6.90;80.10;;;;;;2318360;58;21052;-51
2022/11/25 06:43:02;;;;;;;20.73;9.60;;;6.90;80.30;;;;;;2318624;58;21060;-49
2022/11/25 06:45:30;;;;;;;58.38;10.93;;;6.90;80.30;;;;;;2318956;58;21524;-53
2022/11/25 06:47:57;;;;;;;18.95;9.50;;;6.80;80.40;;;;;;2319041;58;21695;-51
2022/11/25 06:50:25;;;;;;;20.90;9.70;;;6.80;80.60;;;;;;2319012;58;21056;-58
2022/11/25 06:52:52;;;;;;;18.17;9.20;;;6.80;80.80;;;;;;2318912;58;21107;-54
2022/11/25 06:55:19;;;;;;;19.35;10.05;;;6.80;80.90;;;;;;2319342;52;21190;-52
2022/11/25 06:57:46;;;;;;;22.15;9.32;;;6.80;81.10;;;;;;2368769;56;21043;-52
2022/11/25 07:00:15;;;;;;;18.37;9.00;;;6.80;81.20;;;;;;2371251;56;21538;-55
2022/11/25 07:02:43;;;;;;;23.77;10.60;;;6.80;81.40;;;;;;2371110;56;21045;-53
2022/11/25 07:05:10;;;;;;;19.23;9.95;;;6.80;81.50;;;;;;2371880;56;21030;-53
2022/11/25 07:07:37;;;;;;;18.98;10.77;;;6.90;81.60;;;;;;2370201;56;21251;-55
2022/11/25 07:10:07;;;;;;;20.25;9.73;;;6.90;81.60;;;;;;2370158;56;21593;-54
2022/11/25 07:12:34;;;;;;;19.62;10.13;;;6.90;81.60;;;;;;2369575;56;21051;-55
2022/11/25 07:15:01;;;;;;;17.42;9.23;;;6.90;81.60;;;;;;2368600;56;21117;-54
2022/11/25 07:17:28;;;;;;;28.08;11.32;;;6.90;82.40;;;;;;2369363;56;21079;-56
2022/11/25 07:19:55;;;;;;;20.85;9.52;;;6.90;81.50;;;;;;2369807;56;21137;-56
2022/11/25 07:22:22;;;;;;;16.98;10.13;;;6.90;81.60;;;;;;2369689;56;21077;-56
2022/11/25 07:24:49;;;;;;;18.62;10.45;;;6.90;81.40;;;;;;2369967;56;21063;-55
2022/11/25 07:27:16;;;;;;;40.88;12.25;;;7.00;81.40;;;;;;2366995;56;21118;-55
2022/11/25 07:29:44;;;;;;;19.12;10.30;;;6.90;81.30;;;;;;2369862;56;21055;-55
2022/11/25 07:32:11;;;;;;;20.17;10.93;;;6.90;81.30;;;;;;2368135;56;21042;-54
2022/11/25 07:34:38;;;;;;;18.73;9.63;;;6.90;81.30;;;;;;2369180;56;21051;-57
2022/11/25 07:37:05;;;;;;;19.25;11.02;;;6.90;81.40;;;;;;2367912;56;21054;-56
2022/11/25 07:39:33;;;;;;;21.70;9.93;;;6.90;81.50;;;;;;2369385;56;21538;-53
2022/11/25 07:42:00;;;;;;;17.83;9.18;;;6.90;81.50;;;;;;2369732;56;21059;-51
2022/11/25 07:44:27;;;;;;;16.73;9.27;;;6.90;81.50;;;;;;2369550;56;21055;-56
2022/11/25 07:46:54;;;;;;;20.15;10.05;;;6.90;81.60;;;;;;2369481;56;21106;-57
2022/11/25 07:49:24;;;;;;;18.17;8.75;;;7.00;81.60;;;;;;2368718;56;21079;-56
2022/11/25 07:51:52;;;;;;;16.15;8.55;;;7.00;81.60;;;;;;2368692;56;21114;-57
2022/11/25 07:54:21;;;;;;;22.00;8.85;;;7.00;81.70;;;;;;2367923;56;22121;-55
2022/11/25 07:56:49;;;;;;;21.77;10.35;;;7.00;81.70;;;;;;2368762;56;21632;-57
2022/11/25 07:59:18;;;;;;;20.15;9.55;;;7.00;81.60;;;;;;2368903;56;22085;-56
2022/11/25 08:01:47;;;;;;;20.08;9.15;;;7.00;81.70;;;;;;2368927;56;21582;-56
2022/11/25 08:04:15;;;;;;;17.83;9.38;;;7.10;81.70;;;;;;2370426;56;21073;-55
2022/11/25 08:06:43;;;;;;;19.15;9.13;;;7.10;81.60;;;;;;2370474;56;21078;-56
2022/11/25 08:09:12;;;;;;;31.77;10.57;;;7.10;81.60;;;;;;2370843;56;21623;-57
2022/11/25 08:11:40;;;;;;;20.17;8.23;;;7.10;81.70;;;;;;2368941;56;21625;-56
2022/11/25 08:14:09;;;;;;;16.45;8.55;;;7.10;81.80;;;;;;2369157;56;21538;-54
2022/11/25 08:16:37;;;;;;;15.32;8.55;;;7.10;81.80;;;;;;2368250;56;21827;-57
2022/11/25 08:19:08;;;;;;;19.37;7.80;;;7.10;81.80;;;;;;2368339;56;21676;-56
2022/11/25 08:21:35;;;;;;;15.35;8.05;;;7.10;82.00;;;;;;2369523;56;21039;-56
2022/11/25 08:24:02;;;;;;;81.47;14.35;;;7.20;82.00;;;;;;2369016;56;21114;-55
2022/11/25 08:26:34;;;;;;;18.20;7.70;;;7.20;82.10;;;;;;2368521;56;21157;-54
2022/11/25 08:29:02;;;;;;;17.27;7.75;;;7.20;82.00;;;;;;2368675;56;21062;-55
2022/11/25 08:31:31;;;;;;;12.98;7.55;;;7.20;82.00;;;;;;2369250;56;21051;-55
2022/11/25 08:33:59;;;;;;;17.15;7.30;;;7.20;82.00;;;;;;2368923;56;21578;-56
2022/11/25 08:36:28;;;;;;;16.30;7.18;;;7.20;82.00;;;;;;2369717;56;21062;-55
2022/11/25 08:38:57;;;;;;;15.77;6.90;;;7.30;82.20;;;;;;2370203;56;21483;-55
2022/11/25 08:41:27;;;;;;;17.87;7.65;;;7.30;82.30;;;;;;2370904;56;21019;-56
2022/11/25 08:43:55;;;;;;;15.40;8.00;;;7.40;82.30;;;;;;2370993;56;21011;-54
2022/11/25 08:46:24;;;;;;;13.40;7.57;;;7.40;82.20;;;;;;2370936;56;21083;-55
2022/11/25 08:48:52;;;;;;;15.95;7.75;;;7.50;82.20;;;;;;2368961;56;21051;-55
2022/11/25 08:51:21;;;;;;;14.27;7.30;;;7.50;82.10;;;;;;2369087;56;21605;-54
2022/11/25 08:53:50;;;;;;;13.48;7.87;;;7.60;82.10;;;;;;2369429;56;21564;-52
2022/11/25 08:56:18;;;;;;;18.58;8.48;;;7.60;81.90;;;;;;2369898;56;21051;-54
2022/11/25 08:58:45;;;;;;;16.00;7.07;;;7.60;81.70;;;;;;2370088;56;21629;-55
2022/11/25 09:01:13;;;;;;;16.08;8.60;;;7.60;81.50;;;;;;2370522;56;21530;-51
2022/11/25 09:03:43;;;;;;;13.68;8.13;;;7.60;81.50;;;;;;2369928;56;21035;-55
2022/11/25 09:06:11;;;;;;;13.80;7.93;;;7.70;81.50;;;;;;2368247;56;21023;-55
2022/11/25 09:08:41;;;;;;;17.23;8.57;;;7.70;81.30;;;;;;2369429;56;21386;-55
2022/11/25 09:11:10;;;;;;;15.55;7.68;;;7.70;81.20;;;;;;2369614;56;21047;-52
2022/11/25 09:13:37;;;;;;;20.85;7.97;;;7.70;81.30;;;;;;2369451;56;21579;-55
2022/11/25 09:16:06;;;;;;;14.02;8.05;;;7.80;81.30;;;;;;2370923;56;21543;-55
2022/11/25 09:18:34;;;;;;;14.85;7.12;;;7.80;81.40;;;;;;2370934;56;21031;-55
2022/11/25 09:21:08;;;;;;;15.88;8.90;;;7.80;81.30;;;;;;2370706;56;21023;-55
2022/11/25 09:23:37;;;;;;;13.75;7.65;;;7.90;81.40;;;;;;2368034;56;21178;-55
2022/11/25 09:26:05;;;;;;;15.07;7.97;;;7.90;81.40;;;;;;2369475;56;21095;-55
2022/11/25 09:28:33;;;;;;;14.85;8.00;;;7.90;81.40;;;;;;2370030;56;21031;-55
2022/11/25 09:31:06;;;;;;;16.62;8.55;;;7.90;81.30;;;;;;2369698;56;21121;-55
2022/11/25 09:33:33;;;;;;;;;;;7.90;81.20;;;;;;2373682;56;21126;-55
2022/11/25 09:36:00;;;;;;;19.37;8.15;;;8.10;81.20;;;;;;2370244;56;20081;-53
2022/11/25 09:38:27;;;;;;;13.57;7.30;;;8.10;80.70;;;;;;2369921;56;21413;-54
2022/11/25 09:46:46;;;;;;;19.17;8.18;;;8.10;80.90;;;;;;2362341;56;21089;-55
2022/11/25 09:49:30;;;;;;;19.45;8.65;;;8.10;80.90;;;;;;2374854;56;21086;-55
2022/11/25 09:52:06;;;;;;;15.40;7.85;;;8.20;81.00;;;;;;2375861;56;21078;-55
2022/11/25 09:54:36;;;;;;;13.27;7.55;;;8.10;80.90;;;;;;2375974;56;21027;-53
2022/11/25 09:57:19;;;;;;;16.42;8.63;;;8.20;81.00;;;;;;2374692;56;21110;-55
2022/11/25 09:59:53;;;;;;;16.35;7.95;;;8.20;81.10;;;;;;2375943;56;21074;-54
2022/11/25 10:02:27;;;;;;;16.20;7.80;;;8.30;81.10;;;;;;2374689;56;21539;-55
2022/11/25 10:05:02;;;;;;;17.52;7.93;;;8.30;81.10;;;;;;2374468;56;21515;-52
2022/11/25 10:07:41;;;;;;;13.05;6.82;;;8.30;81.10;;;;;;2374785;56;21526;-55
2022/11/25 10:10:18;;;;;;;14.43;6.72;;;8.40;81.20;;;;;;2373488;56;21059;-54
2022/11/25 10:12:46;;;;;;;11.57;6.85;;;8.40;81.10;;;;;;2374599;56;21127;-54
2022/11/25 10:15:18;;;;;;;11.20;6.53;;;8.50;81.00;;;;;;2375462;56;21582;-51
2022/11/25 10:17:49;;;;;;;11.80;6.78;;;8.50;81.00;;;;;;2375286;56;21063;-55
2022/11/25 10:20:20;;;;;;;12.73;6.62;;;8.50;80.90;;;;;;2374650;56;21578;-54
2022/11/25 10:22:51;;;;;;;15.60;7.37;;;8.60;80.90;;;;;;2374524;56;21633;-54
2022/11/25 10:25:20;;;;;;;15.75;6.65;;;8.60;80.80;;;;;;2374484;56;21562;-54
2022/11/25 10:30:27;;;;;;;15.23;7.15;;;8.60;80.70;;;;;;2354620;57;22054;-55
2022/11/25 10:33:02;;;;;;;12.75;6.70;;;8.70;80.70;;;;;;2348195;57;21024;-54
2022/11/25 10:35:35;;;;;;;12.52;7.12;;;8.70;80.80;;;;;;2351846;56;21069;-55
2022/11/25 10:38:04;;;;;;;16.87;7.25;;;8.70;80.80;;;;;;2376034;56;21550;-55
2022/11/25 10:40:32;;;;;;;16.40;6.57;;;8.80;80.80;;;;;;2375730;56;21526;-55
2022/11/25 10:43:09;;;;;;;14.10;6.78;;;8.80;80.80;;;;;;2374796;56;21054;-55
2022/11/25 10:45:44;;;;;;;11.88;6.20;;;8.80;80.80;;;;;;2374185;56;21574;-55
2022/11/25 10:48:22;;;;;;;11.60;6.95;;;8.80;80.80;;;;;;2374788;56;21664;-55
2022/11/25 10:51:06;;;;;;;17.40;7.12;;;8.90;80.80;;;;;;2374703;56;21043;-53
2022/11/25 10:53:33;;;;;;;13.05;6.07;;;8.90;80.90;;;;;;2375530;56;21539;-54
2022/11/25 10:56:03;;;;;;;13.38;6.40;;;8.90;80.70;;;;;;2374908;56;21031;-55
2022/11/25 10:58:33;;;;;;;14.38;6.65;;;9.00;80.90;;;;;;2374939;56;21118;-54
2022/11/25 11:01:16;;;;;;;12.52;5.72;;;9.00;80.80;;;;;;2374438;56;21534;-53
2022/11/25 11:06:31;;;;;;;17.92;6.28;;;9.00;80.80;;;;;;2342929;57;22526;-54
2022/11/25 11:08:58;;;;;;;17.15;7.35;;;9.00;80.80;;;;;;2346805;57;21116;-54
2022/11/25 11:11:25;;;;;;;11.15;5.87;;;9.10;80.90;;;;;;2346765;57;21141;-54
2022/11/25 11:14:11;;;;;;;24.95;7.50;;;9.00;80.90;;;;;;2348139;57;21573;-55
2022/11/25 11:16:40;;;;;;;13.30;6.60;;;9.10;81.00;;;;;;2348532;57;21132;-55
2022/11/25 11:19:21;;;;;;;16.48;7.37;;;9.10;80.90;;;;;;2347393;57;21152;-55
2022/11/25 11:24:30;;;;;;;14.50;7.07;;;9.10;80.90;;;;;;2328430;57;22714;-56
2022/11/25 11:27:14;;;;;;;18.77;6.97;;;9.10;80.90;;;;;;2347028;57;21049;-54
2022/11/25 11:29:41;;;;;;;15.50;7.03;;;9.20;80.90;;;;;;2347561;57;21569;-54
2022/11/25 11:32:22;;;;;;;20.27;6.80;;;9.20;80.80;;;;;;2347761;57;21621;-54
2022/11/25 11:35:02;;;;;;;22.92;7.43;;;9.20;80.80;;;;;;2347239;57;21578;-54
2022/11/25 11:37:40;;;;;;;13.02;6.50;;;9.20;80.80;;;;;;2347302;57;22185;-54
2022/11/25 11:40:24;;;;;;;14.25;6.87;;;9.20;80.60;;;;;;2346576;57;21034;-55
2022/11/25 11:42:56;;;;;;;;;;;9.20;80.60;;;;;;2350233;57;21049;-54
2022/11/25 11:45:47;;;;;;;11.57;6.40;;;9.40;80.60;;;;;;2346286;57;20334;-55
2022/11/25 11:48:24;;;;;;;13.40;7.25;;;9.30;80.20;;;;;;2346791;57;21533;-53
2022/11/25 11:53:35;;;;;;;15.80;7.62;;;9.30;80.50;;;;;;2335671;57;27800;-55
2022/11/25 11:56:08;;;;;;;13.15;6.70;;;9.20;82.50;;;;;;2356720;56;21654;-55
2022/11/25 11:58:56;;;;;;;18.10;6.18;;;9.40;82.00;;;;;;2374400;56;21106;-55
2022/11/25 12:04:19;;;;;;;14.07;7.03;;;9.50;80.70;;;;;;2328750;57;22067;-55
2022/11/25 12:06:57;;;;;;;11.07;5.95;;;9.60;80.50;;;;;;2364607;56;21098;-54
2022/11/25 12:09:27;;;;;;;17.02;5.90;;;9.60;80.40;;;;;;2375229;56;21535;-55
2022/11/25 12:12:02;;;;;;;10.43;5.90;;;9.60;80.30;;;;;;2375088;56;21617;-54
2022/11/25 12:14:38;;;;;;;18.35;6.25;;;9.70;80.40;;;;;;2375004;56;21194;-54
2022/11/25 12:17:11;;;;;;;15.07;5.75;;;9.60;80.30;;;;;;2374828;56;21035;-55
2022/11/25 12:19:46;;;;;;;15.63;6.30;;;9.60;80.30;;;;;;2374186;56;21542;-55
2022/11/25 12:22:19;;;;;;;16.27;7.95;;;9.70;81.10;;;;;;2374166;56;21050;-55
2022/11/25 12:24:50;;;;;;;15.38;6.95;;;9.70;80.30;;;;;;2374801;56;21506;-55
2022/11/25 12:27:21;;;;;;;17.80;6.70;;;9.70;80.20;;;;;;2376081;56;21074;-53
2022/11/25 12:29:51;;;;;;;16.83;6.90;;;9.70;80.20;;;;;;2375548;56;21030;-55
2022/11/25 12:32:41;;;;;;;16.40;7.55;;;9.70;80.20;;;;;;2375862;56;21018;-54
2022/11/25 12:38:01;;;;;;;13.95;6.03;;;9.70;80.10;;;;;;2355274;57;22002;-55
2022/11/25 12:40:36;;;;;;;12.40;6.20;;;9.70;80.20;;;;;;2346649;57;21553;-55
2022/11/25 12:43:17;;;;;;;17.02;6.37;;;9.70;80.40;;;;;;2347350;57;21061;-55
2022/11/25 12:45:48;;;;;;;18.27;7.60;;;9.70;80.50;;;;;;2351111;56;21196;-54
2022/11/25 12:48:16;;;;;;;16.12;7.15;;;9.70;80.40;;;;;;2375313;56;21538;-54
2022/11/25 12:50:56;;;;;;;18.35;6.90;;;9.80;80.50;;;;;;2375428;56;21086;-55
2022/11/25 12:53:30;;;;;;;13.65;6.35;;;9.80;80.50;;;;;;2374914;56;21035;-54
2022/11/25 12:56:00;;;;;;;13.98;5.87;;;9.80;80.50;;;;;;2397909;54;21649;-48
2022/11/25 12:58:48;;;;;;;13.77;6.85;;;9.80;80.40;;;;;;2303613;58;21601;-46
2022/11/25 13:01:57;;;;;;;24.02;8.88;;;9.90;80.50;;;;;;2302132;58;22613;-53
2022/11/25 13:04:45;;;;;;;12.93;6.20;;;9.90;80.40;;;;;;2290233;58;21106;-52
2022/11/25 13:07:28;;;;;;;12.35;6.37;;;9.90;80.30;;;;;;2302607;58;21570;-49
2022/11/25 13:10:32;;;;;;;12.80;7.00;;;9.90;80.50;;;;;;2303047;58;21090;-50
2022/11/25 13:13:10;;;;;;;10.45;5.55;;;10.00;80.50;;;;;;2303021;58;21545;-48
2022/11/25 13:15:41;;;;;;;22.62;7.65;;;10.00;80.40;;;;;;2299961;58;21554;-49
2022/11/25 13:18:12;;;;;;;13.02;6.62;;;10.00;80.40;;;;;;2299989;58;21130;-47
2022/11/25 13:20:50;;;;;;;15.63;6.95;;;10.00;80.40;;;;;;2301436;58;21142;-49
2022/11/25 13:23:40;;;;;;;12.15;5.95;;;10.00;80.50;;;;;;2302190;58;21049;-52
2022/11/25 13:27:04;;;;;;;18.77;6.65;;;10.00;80.30;;;;;;2301943;58;21557;-50
2022/11/25 13:30:33;;;;;;;19.37;8.80;;;10.00;80.40;;;;;;2302592;58;21062;-49
2022/11/25 13:34:13;;;;;;;18.70;6.12;;;10.10;80.50;;;;;;2301049;58;21058;-50
2022/11/25 13:36:46;;;;;;;11.55;5.85;;;10.10;80.70;;;;;;2283921;58;21062;-49
2022/11/25 13:39:15;;;;;;;14.25;6.30;;;10.10;80.50;;;;;;2300577;58;21062;-55